<?xml version="1.0" encoding="UTF-8" standalone="no" ?>
<gpx xmlns="http://www.topografix.com/GPX/1/1" xmlns:xsi="http://www.w3.org/2001/XMLSchema-instance" xsi:schemaLocation="http://www.topografix.com/GPX/1/1 http://www.topografix.com/GPX/1/1/gpx.xsd" version="1.1" creator="VisuGPX - https://www.visugpx.com">
  <metadata>
    <name>65 - PEDESTRE - Cauterets - La Reine Hortense un aller retour depuis le village - Le 29/12/2015</name>
    <desc><![CDATA[Promenade au départ du village de Cauterets]]></desc>
  </metadata>
  <wpt lat="42.88759" lon="-0.11405">
    <ele>935.96215820312</ele>
    <name><![CDATA[La Fruitiere d]]></name>
  </wpt>
  <trk>
    <name><![CDATA[ACTIVE LOG 004]]></name>
    <trkseg>
      <trkpt lat="42.89056" lon="-0.11239">
        <ele>947.5166015625</ele>
        <time>2015-12-29T12:27:46Z</time>
      </trkpt>
      <trkpt lat="42.89057" lon="-0.11238">
        <ele>948.47778320312</ele>
        <time>2015-12-29T12:27:47Z</time>
      </trkpt>
      <trkpt lat="42.89057" lon="-0.11238">
        <ele>948.47778320312</ele>
        <time>2015-12-29T12:27:48Z</time>
      </trkpt>
      <trkpt lat="42.8906" lon="-0.11255">
        <ele>947.5166015625</ele>
        <time>2015-12-29T12:28:03Z</time>
      </trkpt>
      <trkpt lat="42.8906" lon="-0.11254">
        <ele>947.5166015625</ele>
        <time>2015-12-29T12:28:20Z</time>
      </trkpt>
      <trkpt lat="42.89065" lon="-0.11244">
        <ele>949.919921875</ele>
        <time>2015-12-29T12:28:34Z</time>
      </trkpt>
      <trkpt lat="42.89061" lon="-0.11233">
        <ele>951.36181640625</ele>
        <time>2015-12-29T12:28:47Z</time>
      </trkpt>
      <trkpt lat="42.89055" lon="-0.11227">
        <ele>951.36181640625</ele>
        <time>2015-12-29T12:28:55Z</time>
      </trkpt>
      <trkpt lat="42.89049" lon="-0.11219">
        <ele>950.88110351562</ele>
        <time>2015-12-29T12:29:05Z</time>
      </trkpt>
      <trkpt lat="42.89045" lon="-0.11207">
        <ele>953.28442382812</ele>
        <time>2015-12-29T12:29:16Z</time>
      </trkpt>
      <trkpt lat="42.89039" lon="-0.11199">
        <ele>953.76513671875</ele>
        <time>2015-12-29T12:29:27Z</time>
      </trkpt>
      <trkpt lat="42.89042" lon="-0.11191">
        <ele>956.64916992188</ele>
        <time>2015-12-29T12:29:37Z</time>
      </trkpt>
      <trkpt lat="42.89044" lon="-0.1119">
        <ele>956.64916992188</ele>
        <time>2015-12-29T12:29:41Z</time>
      </trkpt>
      <trkpt lat="42.89048" lon="-0.11182">
        <ele>957.61059570312</ele>
        <time>2015-12-29T12:29:52Z</time>
      </trkpt>
      <trkpt lat="42.89048" lon="-0.11181">
        <ele>958.09130859375</ele>
        <time>2015-12-29T12:30:04Z</time>
      </trkpt>
      <trkpt lat="42.89051" lon="-0.11171">
        <ele>958.09130859375</ele>
        <time>2015-12-29T12:30:15Z</time>
      </trkpt>
      <trkpt lat="42.89046" lon="-0.11164">
        <ele>960.49438476562</ele>
        <time>2015-12-29T12:30:25Z</time>
      </trkpt>
      <trkpt lat="42.89042" lon="-0.11164">
        <ele>960.97509765625</ele>
        <time>2015-12-29T12:30:28Z</time>
      </trkpt>
      <trkpt lat="42.89038" lon="-0.11157">
        <ele>962.4169921875</ele>
        <time>2015-12-29T12:30:38Z</time>
      </trkpt>
      <trkpt lat="42.89031" lon="-0.11149">
        <ele>963.37841796875</ele>
        <time>2015-12-29T12:30:48Z</time>
      </trkpt>
      <trkpt lat="42.89021" lon="-0.11143">
        <ele>963.85888671875</ele>
        <time>2015-12-29T12:30:58Z</time>
      </trkpt>
      <trkpt lat="42.89012" lon="-0.11131">
        <ele>966.26220703125</ele>
        <time>2015-12-29T12:31:10Z</time>
      </trkpt>
      <trkpt lat="42.89015" lon="-0.11124">
        <ele>968.18481445312</ele>
        <time>2015-12-29T12:31:24Z</time>
      </trkpt>
      <trkpt lat="42.89014" lon="-0.11122">
        <ele>968.18481445312</ele>
        <time>2015-12-29T12:31:29Z</time>
      </trkpt>
      <trkpt lat="42.8901" lon="-0.11116">
        <ele>969.14624023438</ele>
        <time>2015-12-29T12:31:45Z</time>
      </trkpt>
      <trkpt lat="42.89014" lon="-0.11092">
        <ele>972.0302734375</ele>
        <time>2015-12-29T12:32:02Z</time>
      </trkpt>
      <trkpt lat="42.89015" lon="-0.11071">
        <ele>975.39477539062</ele>
        <time>2015-12-29T12:32:23Z</time>
      </trkpt>
      <trkpt lat="42.89029" lon="-0.1107">
        <ele>978.75952148438</ele>
        <time>2015-12-29T12:33:02Z</time>
      </trkpt>
      <trkpt lat="42.89026" lon="-0.1107">
        <ele>981.16284179688</ele>
        <time>2015-12-29T12:33:26Z</time>
      </trkpt>
      <trkpt lat="42.89028" lon="-0.1107">
        <ele>984.52734375</ele>
        <time>2015-12-29T12:34:03Z</time>
      </trkpt>
      <trkpt lat="42.89021" lon="-0.11058">
        <ele>983.08520507812</ele>
        <time>2015-12-29T12:34:18Z</time>
      </trkpt>
      <trkpt lat="42.89023" lon="-0.11031">
        <ele>985.96923828125</ele>
        <time>2015-12-29T12:34:37Z</time>
      </trkpt>
      <trkpt lat="42.89033" lon="-0.11028">
        <ele>988.37280273438</ele>
        <time>2015-12-29T12:34:55Z</time>
      </trkpt>
      <trkpt lat="42.89046" lon="-0.11023">
        <ele>990.77587890625</ele>
        <time>2015-12-29T12:35:06Z</time>
      </trkpt>
      <trkpt lat="42.89053" lon="-0.11013">
        <ele>991.7373046875</ele>
        <time>2015-12-29T12:35:18Z</time>
      </trkpt>
      <trkpt lat="42.89057" lon="-0.11004">
        <ele>992.69873046875</ele>
        <time>2015-12-29T12:35:28Z</time>
      </trkpt>
      <trkpt lat="42.89066" lon="-0.11012">
        <ele>994.140625</ele>
        <time>2015-12-29T12:35:45Z</time>
      </trkpt>
      <trkpt lat="42.89075" lon="-0.11003">
        <ele>995.10180664062</ele>
        <time>2015-12-29T12:36:01Z</time>
      </trkpt>
      <trkpt lat="42.89082" lon="-0.10994">
        <ele>997.0244140625</ele>
        <time>2015-12-29T12:36:11Z</time>
      </trkpt>
      <trkpt lat="42.89084" lon="-0.10988">
        <ele>997.98583984375</ele>
        <time>2015-12-29T12:36:19Z</time>
      </trkpt>
      <trkpt lat="42.89088" lon="-0.10969">
        <ele>1000.3891601562</ele>
        <time>2015-12-29T12:36:30Z</time>
      </trkpt>
      <trkpt lat="42.89097" lon="-0.10962">
        <ele>1001.8310546875</ele>
        <time>2015-12-29T12:36:43Z</time>
      </trkpt>
      <trkpt lat="42.89107" lon="-0.10957">
        <ele>1002.7922363281</ele>
        <time>2015-12-29T12:36:59Z</time>
      </trkpt>
      <trkpt lat="42.89121" lon="-0.1095">
        <ele>1004.7150878906</ele>
        <time>2015-12-29T12:37:16Z</time>
      </trkpt>
      <trkpt lat="42.89121" lon="-0.10945">
        <ele>1005.6765136719</ele>
        <time>2015-12-29T12:37:19Z</time>
      </trkpt>
      <trkpt lat="42.89128" lon="-0.10938">
        <ele>1006.1569824219</ele>
        <time>2015-12-29T12:37:30Z</time>
      </trkpt>
      <trkpt lat="42.89133" lon="-0.10922">
        <ele>1007.1184082031</ele>
        <time>2015-12-29T12:37:48Z</time>
      </trkpt>
      <trkpt lat="42.89133" lon="-0.10923">
        <ele>1009.041015625</ele>
        <time>2015-12-29T12:37:59Z</time>
      </trkpt>
      <trkpt lat="42.89118" lon="-0.10928">
        <ele>1012.4055175781</ele>
        <time>2015-12-29T12:38:25Z</time>
      </trkpt>
      <trkpt lat="42.89111" lon="-0.1093">
        <ele>1013.3669433594</ele>
        <time>2015-12-29T12:38:39Z</time>
      </trkpt>
      <trkpt lat="42.89107" lon="-0.10912">
        <ele>1015.7702636719</ele>
        <time>2015-12-29T12:39:06Z</time>
      </trkpt>
      <trkpt lat="42.89111" lon="-0.10902">
        <ele>1017.6926269531</ele>
        <time>2015-12-29T12:39:23Z</time>
      </trkpt>
      <trkpt lat="42.89127" lon="-0.10879">
        <ele>1019.134765625</ele>
        <time>2015-12-29T12:39:45Z</time>
      </trkpt>
      <trkpt lat="42.8913" lon="-0.10876">
        <ele>1021.5380859375</ele>
        <time>2015-12-29T12:39:57Z</time>
      </trkpt>
      <trkpt lat="42.8914" lon="-0.10866">
        <ele>1022.0187988281</ele>
        <time>2015-12-29T12:40:52Z</time>
      </trkpt>
      <trkpt lat="42.8915" lon="-0.10863">
        <ele>1023.94140625</ele>
        <time>2015-12-29T12:40:59Z</time>
      </trkpt>
      <trkpt lat="42.89149" lon="-0.10864">
        <ele>1022.9802246094</ele>
        <time>2015-12-29T12:41:19Z</time>
      </trkpt>
      <trkpt lat="42.89162" lon="-0.10847">
        <ele>1023.4609375</ele>
        <time>2015-12-29T12:41:43Z</time>
      </trkpt>
      <trkpt lat="42.89167" lon="-0.1084">
        <ele>1024.9028320312</ele>
        <time>2015-12-29T12:41:52Z</time>
      </trkpt>
      <trkpt lat="42.89174" lon="-0.1083">
        <ele>1025.3833007812</ele>
        <time>2015-12-29T12:42:03Z</time>
      </trkpt>
      <trkpt lat="42.89178" lon="-0.10828">
        <ele>1025.8640136719</ele>
        <time>2015-12-29T12:42:12Z</time>
      </trkpt>
      <trkpt lat="42.89186" lon="-0.10823">
        <ele>1027.7866210938</ele>
        <time>2015-12-29T12:42:25Z</time>
      </trkpt>
      <trkpt lat="42.8919" lon="-0.10812">
        <ele>1029.228515625</ele>
        <time>2015-12-29T12:42:40Z</time>
      </trkpt>
      <trkpt lat="42.89183" lon="-0.10791">
        <ele>1032.1125488281</ele>
        <time>2015-12-29T12:43:11Z</time>
      </trkpt>
      <trkpt lat="42.89179" lon="-0.10775">
        <ele>1034.5158691406</ele>
        <time>2015-12-29T12:43:32Z</time>
      </trkpt>
      <trkpt lat="42.89181" lon="-0.10761">
        <ele>1035.9577636719</ele>
        <time>2015-12-29T12:43:42Z</time>
      </trkpt>
      <trkpt lat="42.89185" lon="-0.10752">
        <ele>1038.8420410156</ele>
        <time>2015-12-29T12:44:04Z</time>
      </trkpt>
      <trkpt lat="42.89192" lon="-0.10748">
        <ele>1040.2839355469</ele>
        <time>2015-12-29T12:44:17Z</time>
      </trkpt>
      <trkpt lat="42.892" lon="-0.10739">
        <ele>1041.7258300781</ele>
        <time>2015-12-29T12:44:29Z</time>
      </trkpt>
      <trkpt lat="42.89202" lon="-0.10739">
        <ele>1041.7258300781</ele>
        <time>2015-12-29T12:44:32Z</time>
      </trkpt>
      <trkpt lat="42.89205" lon="-0.10735">
        <ele>1042.6872558594</ele>
        <time>2015-12-29T12:44:43Z</time>
      </trkpt>
      <trkpt lat="42.89218" lon="-0.10738">
        <ele>1044.6096191406</ele>
        <time>2015-12-29T12:45:02Z</time>
      </trkpt>
      <trkpt lat="42.8922" lon="-0.10749">
        <ele>1044.6096191406</ele>
        <time>2015-12-29T12:46:13Z</time>
      </trkpt>
      <trkpt lat="42.89234" lon="-0.10747">
        <ele>1046.0517578125</ele>
        <time>2015-12-29T12:46:27Z</time>
      </trkpt>
      <trkpt lat="42.89244" lon="-0.10736">
        <ele>1047.9743652344</ele>
        <time>2015-12-29T12:46:42Z</time>
      </trkpt>
      <trkpt lat="42.89254" lon="-0.10731">
        <ele>1047.9743652344</ele>
        <time>2015-12-29T12:46:54Z</time>
      </trkpt>
      <trkpt lat="42.89258" lon="-0.10728">
        <ele>1049.4162597656</ele>
        <time>2015-12-29T12:46:58Z</time>
      </trkpt>
      <trkpt lat="42.89269" lon="-0.10717">
        <ele>1051.3388671875</ele>
        <time>2015-12-29T12:47:16Z</time>
      </trkpt>
      <trkpt lat="42.89268" lon="-0.10715">
        <ele>1051.8195800781</ele>
        <time>2015-12-29T12:47:29Z</time>
      </trkpt>
      <trkpt lat="42.89264" lon="-0.10713">
        <ele>1051.8195800781</ele>
        <time>2015-12-29T12:47:42Z</time>
      </trkpt>
      <trkpt lat="42.89266" lon="-0.10711">
        <ele>1051.8195800781</ele>
        <time>2015-12-29T12:47:45Z</time>
      </trkpt>
      <trkpt lat="42.89277" lon="-0.10703">
        <ele>1051.8195800781</ele>
        <time>2015-12-29T12:48:01Z</time>
      </trkpt>
      <trkpt lat="42.8928" lon="-0.10697">
        <ele>1051.3388671875</ele>
        <time>2015-12-29T12:48:06Z</time>
      </trkpt>
      <trkpt lat="42.89292" lon="-0.10678">
        <ele>1050.8581542969</ele>
        <time>2015-12-29T12:48:21Z</time>
      </trkpt>
      <trkpt lat="42.89302" lon="-0.10658">
        <ele>1050.8581542969</ele>
        <time>2015-12-29T12:48:35Z</time>
      </trkpt>
      <trkpt lat="42.89311" lon="-0.10635">
        <ele>1050.3776855469</ele>
        <time>2015-12-29T12:48:50Z</time>
      </trkpt>
      <trkpt lat="42.89316" lon="-0.10617">
        <ele>1049.4162597656</ele>
        <time>2015-12-29T12:49:04Z</time>
      </trkpt>
      <trkpt lat="42.89313" lon="-0.10604">
        <ele>1047.9743652344</ele>
        <time>2015-12-29T12:49:18Z</time>
      </trkpt>
      <trkpt lat="42.89314" lon="-0.10594">
        <ele>1047.9743652344</ele>
        <time>2015-12-29T12:49:26Z</time>
      </trkpt>
      <trkpt lat="42.89322" lon="-0.10569">
        <ele>1048.4548339844</ele>
        <time>2015-12-29T12:49:42Z</time>
      </trkpt>
      <trkpt lat="42.89322" lon="-0.10566">
        <ele>1048.4548339844</ele>
        <time>2015-12-29T12:49:44Z</time>
      </trkpt>
      <trkpt lat="42.89334" lon="-0.10555">
        <ele>1048.935546875</ele>
        <time>2015-12-29T12:49:56Z</time>
      </trkpt>
      <trkpt lat="42.8934" lon="-0.10554">
        <ele>1049.4162597656</ele>
        <time>2015-12-29T12:50:12Z</time>
      </trkpt>
      <trkpt lat="42.89348" lon="-0.10547">
        <ele>1048.935546875</ele>
        <time>2015-12-29T12:50:22Z</time>
      </trkpt>
      <trkpt lat="42.89351" lon="-0.10535">
        <ele>1049.4162597656</ele>
        <time>2015-12-29T12:50:33Z</time>
      </trkpt>
      <trkpt lat="42.89366" lon="-0.1053">
        <ele>1049.4162597656</ele>
        <time>2015-12-29T12:50:46Z</time>
      </trkpt>
      <trkpt lat="42.89381" lon="-0.10532">
        <ele>1050.3776855469</ele>
        <time>2015-12-29T12:51:03Z</time>
      </trkpt>
      <trkpt lat="42.89394" lon="-0.10528">
        <ele>1051.3388671875</ele>
        <time>2015-12-29T12:51:18Z</time>
      </trkpt>
      <trkpt lat="42.89413" lon="-0.10529">
        <ele>1052.3002929688</ele>
        <time>2015-12-29T12:51:38Z</time>
      </trkpt>
      <trkpt lat="42.89433" lon="-0.10535">
        <ele>1050.3776855469</ele>
        <time>2015-12-29T12:51:58Z</time>
      </trkpt>
      <trkpt lat="42.89448" lon="-0.1054">
        <ele>1049.8969726562</ele>
        <time>2015-12-29T12:52:16Z</time>
      </trkpt>
      <trkpt lat="42.8946" lon="-0.10542">
        <ele>1047.9743652344</ele>
        <time>2015-12-29T12:52:30Z</time>
      </trkpt>
      <trkpt lat="42.89468" lon="-0.10535">
        <ele>1046.5324707031</ele>
        <time>2015-12-29T12:52:42Z</time>
      </trkpt>
      <trkpt lat="42.89479" lon="-0.10523">
        <ele>1046.0517578125</ele>
        <time>2015-12-29T12:52:58Z</time>
      </trkpt>
      <trkpt lat="42.89483" lon="-0.10514">
        <ele>1047.0129394531</ele>
        <time>2015-12-29T12:53:09Z</time>
      </trkpt>
      <trkpt lat="42.89488" lon="-0.10504">
        <ele>1049.4162597656</ele>
        <time>2015-12-29T12:53:20Z</time>
      </trkpt>
      <trkpt lat="42.89495" lon="-0.10498">
        <ele>1050.8581542969</ele>
        <time>2015-12-29T12:53:32Z</time>
      </trkpt>
      <trkpt lat="42.89504" lon="-0.10483">
        <ele>1052.3002929688</ele>
        <time>2015-12-29T12:53:48Z</time>
      </trkpt>
      <trkpt lat="42.89512" lon="-0.10469">
        <ele>1054.2231445312</ele>
        <time>2015-12-29T12:54:03Z</time>
      </trkpt>
      <trkpt lat="42.89514" lon="-0.10465">
        <ele>1054.2231445312</ele>
        <time>2015-12-29T12:54:06Z</time>
      </trkpt>
      <trkpt lat="42.89519" lon="-0.10445">
        <ele>1055.1843261719</ele>
        <time>2015-12-29T12:54:21Z</time>
      </trkpt>
      <trkpt lat="42.8952" lon="-0.10444">
        <ele>1055.6650390625</ele>
        <time>2015-12-29T12:54:22Z</time>
      </trkpt>
      <trkpt lat="42.89533" lon="-0.10436">
        <ele>1056.6262207031</ele>
        <time>2015-12-29T12:54:42Z</time>
      </trkpt>
      <trkpt lat="42.8954" lon="-0.10433">
        <ele>1057.1069335938</ele>
        <time>2015-12-29T12:54:55Z</time>
      </trkpt>
      <trkpt lat="42.8955" lon="-0.10422">
        <ele>1058.548828125</ele>
        <time>2015-12-29T12:55:12Z</time>
      </trkpt>
      <trkpt lat="42.89553" lon="-0.10417">
        <ele>1058.548828125</ele>
        <time>2015-12-29T12:55:26Z</time>
      </trkpt>
      <trkpt lat="42.89561" lon="-0.10409">
        <ele>1059.9907226562</ele>
        <time>2015-12-29T12:55:38Z</time>
      </trkpt>
      <trkpt lat="42.89574" lon="-0.10399">
        <ele>1060.9521484375</ele>
        <time>2015-12-29T12:55:53Z</time>
      </trkpt>
      <trkpt lat="42.89588" lon="-0.1039">
        <ele>1062.3940429688</ele>
        <time>2015-12-29T12:56:08Z</time>
      </trkpt>
      <trkpt lat="42.8959" lon="-0.1039">
        <ele>1061.9135742188</ele>
        <time>2015-12-29T12:56:09Z</time>
      </trkpt>
      <trkpt lat="42.8961" lon="-0.10383">
        <ele>1062.3940429688</ele>
        <time>2015-12-29T12:56:23Z</time>
      </trkpt>
      <trkpt lat="42.89618" lon="-0.10374">
        <ele>1063.35546875</ele>
        <time>2015-12-29T12:56:37Z</time>
      </trkpt>
      <trkpt lat="42.89619" lon="-0.10359">
        <ele>1065.2780761719</ele>
        <time>2015-12-29T12:56:51Z</time>
      </trkpt>
      <trkpt lat="42.89616" lon="-0.10369">
        <ele>1065.2780761719</ele>
        <time>2015-12-29T12:56:59Z</time>
      </trkpt>
      <trkpt lat="42.89615" lon="-0.10375">
        <ele>1065.7587890625</ele>
        <time>2015-12-29T12:57:02Z</time>
      </trkpt>
      <trkpt lat="42.89609" lon="-0.10385">
        <ele>1066.7199707031</ele>
        <time>2015-12-29T12:57:15Z</time>
      </trkpt>
      <trkpt lat="42.89596" lon="-0.10388">
        <ele>1068.6428222656</ele>
        <time>2015-12-29T12:57:27Z</time>
      </trkpt>
      <trkpt lat="42.89571" lon="-0.10395">
        <ele>1069.6042480469</ele>
        <time>2015-12-29T12:57:45Z</time>
      </trkpt>
      <trkpt lat="42.89557" lon="-0.10404">
        <ele>1070.5654296875</ele>
        <time>2015-12-29T12:58:01Z</time>
      </trkpt>
      <trkpt lat="42.89541" lon="-0.10414">
        <ele>1072.4880371094</ele>
        <time>2015-12-29T12:58:17Z</time>
      </trkpt>
      <trkpt lat="42.89533" lon="-0.10418">
        <ele>1073.4494628906</ele>
        <time>2015-12-29T12:58:28Z</time>
      </trkpt>
      <trkpt lat="42.89522" lon="-0.10414">
        <ele>1074.4106445312</ele>
        <time>2015-12-29T12:58:43Z</time>
      </trkpt>
      <trkpt lat="42.89507" lon="-0.10415">
        <ele>1075.8525390625</ele>
        <time>2015-12-29T12:58:59Z</time>
      </trkpt>
      <trkpt lat="42.89494" lon="-0.10419">
        <ele>1076.8139648438</ele>
        <time>2015-12-29T12:59:13Z</time>
      </trkpt>
      <trkpt lat="42.89479" lon="-0.10423">
        <ele>1078.255859375</ele>
        <time>2015-12-29T12:59:28Z</time>
      </trkpt>
      <trkpt lat="42.89465" lon="-0.10426">
        <ele>1078.7365722656</ele>
        <time>2015-12-29T12:59:44Z</time>
      </trkpt>
      <trkpt lat="42.89455" lon="-0.10431">
        <ele>1080.6591796875</ele>
        <time>2015-12-29T12:59:59Z</time>
      </trkpt>
      <trkpt lat="42.89452" lon="-0.10432">
        <ele>1081.1398925781</ele>
        <time>2015-12-29T13:00:02Z</time>
      </trkpt>
      <trkpt lat="42.8944" lon="-0.10437">
        <ele>1082.5817871094</ele>
        <time>2015-12-29T13:00:16Z</time>
      </trkpt>
      <trkpt lat="42.89434" lon="-0.10446">
        <ele>1083.54296875</ele>
        <time>2015-12-29T13:00:30Z</time>
      </trkpt>
      <trkpt lat="42.8942" lon="-0.10453">
        <ele>1084.9853515625</ele>
        <time>2015-12-29T13:00:44Z</time>
      </trkpt>
      <trkpt lat="42.89419" lon="-0.10455">
        <ele>1085.9465332031</ele>
        <time>2015-12-29T13:00:46Z</time>
      </trkpt>
      <trkpt lat="42.89402" lon="-0.10463">
        <ele>1086.4272460938</ele>
        <time>2015-12-29T13:00:59Z</time>
      </trkpt>
      <trkpt lat="42.89394" lon="-0.10453">
        <ele>1087.869140625</ele>
        <time>2015-12-29T13:01:11Z</time>
      </trkpt>
      <trkpt lat="42.89397" lon="-0.10438">
        <ele>1088.8305664062</ele>
        <time>2015-12-29T13:01:22Z</time>
      </trkpt>
      <trkpt lat="42.894" lon="-0.10434">
        <ele>1089.7917480469</ele>
        <time>2015-12-29T13:01:25Z</time>
      </trkpt>
      <trkpt lat="42.89402" lon="-0.10432">
        <ele>1089.7917480469</ele>
        <time>2015-12-29T13:01:27Z</time>
      </trkpt>
      <trkpt lat="42.89413" lon="-0.10425">
        <ele>1090.7529296875</ele>
        <time>2015-12-29T13:01:40Z</time>
      </trkpt>
      <trkpt lat="42.89425" lon="-0.10409">
        <ele>1092.1950683594</ele>
        <time>2015-12-29T13:01:58Z</time>
      </trkpt>
      <trkpt lat="42.89434" lon="-0.10407">
        <ele>1092.67578125</ele>
        <time>2015-12-29T13:02:10Z</time>
      </trkpt>
      <trkpt lat="42.89438" lon="-0.10403">
        <ele>1094.1176757812</ele>
        <time>2015-12-29T13:02:15Z</time>
      </trkpt>
      <trkpt lat="42.89449" lon="-0.10392">
        <ele>1096.0402832031</ele>
        <time>2015-12-29T13:02:28Z</time>
      </trkpt>
      <trkpt lat="42.89451" lon="-0.10387">
        <ele>1097.4821777344</ele>
        <time>2015-12-29T13:02:34Z</time>
      </trkpt>
      <trkpt lat="42.89464" lon="-0.10384">
        <ele>1097.4821777344</ele>
        <time>2015-12-29T13:02:45Z</time>
      </trkpt>
      <trkpt lat="42.89477" lon="-0.10373">
        <ele>1100.3664550781</ele>
        <time>2015-12-29T13:03:28Z</time>
      </trkpt>
      <trkpt lat="42.89477" lon="-0.10371">
        <ele>1101.3276367188</ele>
        <time>2015-12-29T13:03:38Z</time>
      </trkpt>
      <trkpt lat="42.89488" lon="-0.10365">
        <ele>1102.76953125</ele>
        <time>2015-12-29T13:03:51Z</time>
      </trkpt>
      <trkpt lat="42.89498" lon="-0.10355">
        <ele>1104.6921386719</ele>
        <time>2015-12-29T13:04:06Z</time>
      </trkpt>
      <trkpt lat="42.89499" lon="-0.10349">
        <ele>1105.6535644531</ele>
        <time>2015-12-29T13:04:19Z</time>
      </trkpt>
      <trkpt lat="42.89507" lon="-0.10346">
        <ele>1106.1340332031</ele>
        <time>2015-12-29T13:04:30Z</time>
      </trkpt>
      <trkpt lat="42.89515" lon="-0.10339">
        <ele>1107.0954589844</ele>
        <time>2015-12-29T13:04:41Z</time>
      </trkpt>
      <trkpt lat="42.89521" lon="-0.10334">
        <ele>1109.0180664062</ele>
        <time>2015-12-29T13:04:53Z</time>
      </trkpt>
      <trkpt lat="42.89528" lon="-0.10322">
        <ele>1109.4987792969</ele>
        <time>2015-12-29T13:05:04Z</time>
      </trkpt>
      <trkpt lat="42.8954" lon="-0.10318">
        <ele>1111.4213867188</ele>
        <time>2015-12-29T13:05:17Z</time>
      </trkpt>
      <trkpt lat="42.89548" lon="-0.10312">
        <ele>1114.3051757812</ele>
        <time>2015-12-29T13:05:31Z</time>
      </trkpt>
      <trkpt lat="42.8956" lon="-0.10303">
        <ele>1115.2666015625</ele>
        <time>2015-12-29T13:05:42Z</time>
      </trkpt>
      <trkpt lat="42.89561" lon="-0.10296">
        <ele>1115.7473144531</ele>
        <time>2015-12-29T13:05:48Z</time>
      </trkpt>
      <trkpt lat="42.89561" lon="-0.10285">
        <ele>1117.189453125</ele>
        <time>2015-12-29T13:05:59Z</time>
      </trkpt>
      <trkpt lat="42.89573" lon="-0.1027">
        <ele>1119.5927734375</ele>
        <time>2015-12-29T13:06:18Z</time>
      </trkpt>
      <trkpt lat="42.89577" lon="-0.10261">
        <ele>1121.5151367188</ele>
        <time>2015-12-29T13:06:29Z</time>
      </trkpt>
      <trkpt lat="42.89588" lon="-0.1025">
        <ele>1122.9572753906</ele>
        <time>2015-12-29T13:06:43Z</time>
      </trkpt>
      <trkpt lat="42.8959" lon="-0.10241">
        <ele>1123.9184570312</ele>
        <time>2015-12-29T13:06:54Z</time>
      </trkpt>
      <trkpt lat="42.89593" lon="-0.10231">
        <ele>1125.3603515625</ele>
        <time>2015-12-29T13:07:07Z</time>
      </trkpt>
      <trkpt lat="42.89603" lon="-0.10226">
        <ele>1128.2443847656</ele>
        <time>2015-12-29T13:07:22Z</time>
      </trkpt>
      <trkpt lat="42.89609" lon="-0.10224">
        <ele>1129.6862792969</ele>
        <time>2015-12-29T13:07:33Z</time>
      </trkpt>
      <trkpt lat="42.8962" lon="-0.10218">
        <ele>1130.6477050781</ele>
        <time>2015-12-29T13:07:46Z</time>
      </trkpt>
      <trkpt lat="42.89629" lon="-0.10214">
        <ele>1132.08984375</ele>
        <time>2015-12-29T13:07:58Z</time>
      </trkpt>
      <trkpt lat="42.89639" lon="-0.10214">
        <ele>1134.0124511719</ele>
        <time>2015-12-29T13:08:10Z</time>
      </trkpt>
      <trkpt lat="42.89649" lon="-0.10219">
        <ele>1134.4931640625</ele>
        <time>2015-12-29T13:08:22Z</time>
      </trkpt>
      <trkpt lat="42.89658" lon="-0.10219">
        <ele>1135.9350585938</ele>
        <time>2015-12-29T13:08:33Z</time>
      </trkpt>
      <trkpt lat="42.89669" lon="-0.10214">
        <ele>1137.376953125</ele>
        <time>2015-12-29T13:08:46Z</time>
      </trkpt>
      <trkpt lat="42.89679" lon="-0.10208">
        <ele>1139.7802734375</ele>
        <time>2015-12-29T13:09:01Z</time>
      </trkpt>
      <trkpt lat="42.89686" lon="-0.10202">
        <ele>1141.7028808594</ele>
        <time>2015-12-29T13:09:14Z</time>
      </trkpt>
      <trkpt lat="42.89674" lon="-0.102">
        <ele>1143.6254882812</ele>
        <time>2015-12-29T13:09:29Z</time>
      </trkpt>
      <trkpt lat="42.89664" lon="-0.10202">
        <ele>1144.5866699219</ele>
        <time>2015-12-29T13:09:43Z</time>
      </trkpt>
      <trkpt lat="42.89649" lon="-0.10208">
        <ele>1145.0673828125</ele>
        <time>2015-12-29T13:09:57Z</time>
      </trkpt>
      <trkpt lat="42.89641" lon="-0.10207">
        <ele>1145.5480957031</ele>
        <time>2015-12-29T13:10:16Z</time>
      </trkpt>
      <trkpt lat="42.89642" lon="-0.10205">
        <ele>1145.5480957031</ele>
        <time>2015-12-29T13:10:23Z</time>
      </trkpt>
      <trkpt lat="42.89639" lon="-0.10202">
        <ele>1145.5480957031</ele>
        <time>2015-12-29T13:10:26Z</time>
      </trkpt>
      <trkpt lat="42.89629" lon="-0.10198">
        <ele>1146.9899902344</ele>
        <time>2015-12-29T13:10:40Z</time>
      </trkpt>
      <trkpt lat="42.89626" lon="-0.102">
        <ele>1147.9514160156</ele>
        <time>2015-12-29T13:10:46Z</time>
      </trkpt>
      <trkpt lat="42.89625" lon="-0.10202">
        <ele>1148.4321289062</ele>
        <time>2015-12-29T13:10:48Z</time>
      </trkpt>
      <trkpt lat="42.89616" lon="-0.10204">
        <ele>1149.8742675781</ele>
        <time>2015-12-29T13:10:58Z</time>
      </trkpt>
      <trkpt lat="42.89604" lon="-0.10213">
        <ele>1152.27734375</ele>
        <time>2015-12-29T13:11:12Z</time>
      </trkpt>
      <trkpt lat="42.89577" lon="-0.10218">
        <ele>1153.7194824219</ele>
        <time>2015-12-29T13:11:29Z</time>
      </trkpt>
      <trkpt lat="42.89565" lon="-0.10214">
        <ele>1156.6032714844</ele>
        <time>2015-12-29T13:11:43Z</time>
      </trkpt>
      <trkpt lat="42.89562" lon="-0.10217">
        <ele>1158.0454101562</ele>
        <time>2015-12-29T13:11:49Z</time>
      </trkpt>
      <trkpt lat="42.8956" lon="-0.10218">
        <ele>1158.0454101562</ele>
        <time>2015-12-29T13:11:51Z</time>
      </trkpt>
      <trkpt lat="42.89546" lon="-0.10227">
        <ele>1159.4873046875</ele>
        <time>2015-12-29T13:12:07Z</time>
      </trkpt>
      <trkpt lat="42.89545" lon="-0.10228">
        <ele>1159.4873046875</ele>
        <time>2015-12-29T13:12:08Z</time>
      </trkpt>
      <trkpt lat="42.89535" lon="-0.10234">
        <ele>1161.890625</ele>
        <time>2015-12-29T13:12:23Z</time>
      </trkpt>
      <trkpt lat="42.89534" lon="-0.10236">
        <ele>1162.8518066406</ele>
        <time>2015-12-29T13:12:37Z</time>
      </trkpt>
      <trkpt lat="42.89532" lon="-0.10243">
        <ele>1163.3325195312</ele>
        <time>2015-12-29T13:12:46Z</time>
      </trkpt>
      <trkpt lat="42.89524" lon="-0.10249">
        <ele>1164.2939453125</ele>
        <time>2015-12-29T13:12:55Z</time>
      </trkpt>
      <trkpt lat="42.89522" lon="-0.1025">
        <ele>1164.7746582031</ele>
        <time>2015-12-29T13:12:57Z</time>
      </trkpt>
      <trkpt lat="42.89517" lon="-0.10251">
        <ele>1164.2939453125</ele>
        <time>2015-12-29T13:13:01Z</time>
      </trkpt>
      <trkpt lat="42.89506" lon="-0.10251">
        <ele>1165.2553710938</ele>
        <time>2015-12-29T13:13:08Z</time>
      </trkpt>
      <trkpt lat="42.89488" lon="-0.10259">
        <ele>1167.6584472656</ele>
        <time>2015-12-29T13:13:22Z</time>
      </trkpt>
      <trkpt lat="42.89476" lon="-0.1026">
        <ele>1168.1391601562</ele>
        <time>2015-12-29T13:13:32Z</time>
      </trkpt>
      <trkpt lat="42.89461" lon="-0.10264">
        <ele>1170.0617675781</ele>
        <time>2015-12-29T13:13:47Z</time>
      </trkpt>
      <trkpt lat="42.89443" lon="-0.10263">
        <ele>1171.984375</ele>
        <time>2015-12-29T13:14:05Z</time>
      </trkpt>
      <trkpt lat="42.89424" lon="-0.10267">
        <ele>1173.9069824219</ele>
        <time>2015-12-29T13:14:22Z</time>
      </trkpt>
      <trkpt lat="42.8941" lon="-0.10267">
        <ele>1176.3103027344</ele>
        <time>2015-12-29T13:14:37Z</time>
      </trkpt>
      <trkpt lat="42.89404" lon="-0.10255">
        <ele>1177.7521972656</ele>
        <time>2015-12-29T13:14:51Z</time>
      </trkpt>
      <trkpt lat="42.89411" lon="-0.10248">
        <ele>1178.7136230469</ele>
        <time>2015-12-29T13:14:59Z</time>
      </trkpt>
      <trkpt lat="42.89426" lon="-0.10231">
        <ele>1180.1557617188</ele>
        <time>2015-12-29T13:15:13Z</time>
      </trkpt>
      <trkpt lat="42.89438" lon="-0.10227">
        <ele>1181.59765625</ele>
        <time>2015-12-29T13:15:25Z</time>
      </trkpt>
      <trkpt lat="42.89451" lon="-0.10217">
        <ele>1183.0395507812</ele>
        <time>2015-12-29T13:15:39Z</time>
      </trkpt>
      <trkpt lat="42.89463" lon="-0.10215">
        <ele>1184.0009765625</ele>
        <time>2015-12-29T13:15:51Z</time>
      </trkpt>
      <trkpt lat="42.89471" lon="-0.10206">
        <ele>1184.9624023438</ele>
        <time>2015-12-29T13:16:02Z</time>
      </trkpt>
      <trkpt lat="42.89487" lon="-0.10196">
        <ele>1187.8461914062</ele>
        <time>2015-12-29T13:16:18Z</time>
      </trkpt>
      <trkpt lat="42.89496" lon="-0.10189">
        <ele>1188.8076171875</ele>
        <time>2015-12-29T13:16:30Z</time>
      </trkpt>
      <trkpt lat="42.89501" lon="-0.10176">
        <ele>1189.7687988281</ele>
        <time>2015-12-29T13:16:42Z</time>
      </trkpt>
      <trkpt lat="42.89511" lon="-0.1016">
        <ele>1190.7299804688</ele>
        <time>2015-12-29T13:16:57Z</time>
      </trkpt>
      <trkpt lat="42.89523" lon="-0.10149">
        <ele>1192.6528320312</ele>
        <time>2015-12-29T13:17:13Z</time>
      </trkpt>
      <trkpt lat="42.89529" lon="-0.10142">
        <ele>1194.5751953125</ele>
        <time>2015-12-29T13:17:24Z</time>
      </trkpt>
      <trkpt lat="42.89531" lon="-0.10142">
        <ele>1194.0947265625</ele>
        <time>2015-12-29T13:17:26Z</time>
      </trkpt>
      <trkpt lat="42.89535" lon="-0.10144">
        <ele>1195.0559082031</ele>
        <time>2015-12-29T13:17:30Z</time>
      </trkpt>
      <trkpt lat="42.89546" lon="-0.10145">
        <ele>1196.4982910156</ele>
        <time>2015-12-29T13:17:39Z</time>
      </trkpt>
      <trkpt lat="42.89558" lon="-0.10145">
        <ele>1197.4594726562</ele>
        <time>2015-12-29T13:17:54Z</time>
      </trkpt>
      <trkpt lat="42.8957" lon="-0.10141">
        <ele>1197.9401855469</ele>
        <time>2015-12-29T13:18:08Z</time>
      </trkpt>
      <trkpt lat="42.89579" lon="-0.1013">
        <ele>1198.4206542969</ele>
        <time>2015-12-29T13:18:22Z</time>
      </trkpt>
      <trkpt lat="42.89588" lon="-0.10128">
        <ele>1198.9013671875</ele>
        <time>2015-12-29T13:18:41Z</time>
      </trkpt>
      <trkpt lat="42.89592" lon="-0.10118">
        <ele>1200.3435058594</ele>
        <time>2015-12-29T13:18:55Z</time>
      </trkpt>
      <trkpt lat="42.89593" lon="-0.10102">
        <ele>1201.3046875</ele>
        <time>2015-12-29T13:19:04Z</time>
      </trkpt>
      <trkpt lat="42.89598" lon="-0.10087">
        <ele>1203.2272949219</ele>
        <time>2015-12-29T13:19:19Z</time>
      </trkpt>
      <trkpt lat="42.89598" lon="-0.10077">
        <ele>1204.1887207031</ele>
        <time>2015-12-29T13:19:28Z</time>
      </trkpt>
      <trkpt lat="42.89607" lon="-0.10073">
        <ele>1206.1110839844</ele>
        <time>2015-12-29T13:19:40Z</time>
      </trkpt>
      <trkpt lat="42.89623" lon="-0.10073">
        <ele>1207.0725097656</ele>
        <time>2015-12-29T13:19:54Z</time>
      </trkpt>
      <trkpt lat="42.89634" lon="-0.10067">
        <ele>1208.5144042969</ele>
        <time>2015-12-29T13:20:06Z</time>
      </trkpt>
      <trkpt lat="42.89635" lon="-0.10067">
        <ele>1208.5144042969</ele>
        <time>2015-12-29T13:20:07Z</time>
      </trkpt>
      <trkpt lat="42.89647" lon="-0.10064">
        <ele>1209.4758300781</ele>
        <time>2015-12-29T13:20:19Z</time>
      </trkpt>
      <trkpt lat="42.89653" lon="-0.10061">
        <ele>1210.9177246094</ele>
        <time>2015-12-29T13:20:29Z</time>
      </trkpt>
      <trkpt lat="42.89656" lon="-0.10053">
        <ele>1211.8791503906</ele>
        <time>2015-12-29T13:20:42Z</time>
      </trkpt>
      <trkpt lat="42.89662" lon="-0.10043">
        <ele>1212.8405761719</ele>
        <time>2015-12-29T13:20:53Z</time>
      </trkpt>
      <trkpt lat="42.89676" lon="-0.10031">
        <ele>1214.7631835938</ele>
        <time>2015-12-29T13:21:07Z</time>
      </trkpt>
      <trkpt lat="42.89681" lon="-0.10024">
        <ele>1216.205078125</ele>
        <time>2015-12-29T13:21:18Z</time>
      </trkpt>
      <trkpt lat="42.89692" lon="-0.10021">
        <ele>1216.6857910156</ele>
        <time>2015-12-29T13:21:29Z</time>
      </trkpt>
      <trkpt lat="42.89705" lon="-0.10013">
        <ele>1219.0891113281</ele>
        <time>2015-12-29T13:21:40Z</time>
      </trkpt>
      <trkpt lat="42.89719" lon="-0.10015">
        <ele>1221.01171875</ele>
        <time>2015-12-29T13:21:52Z</time>
      </trkpt>
      <trkpt lat="42.89731" lon="-0.10014">
        <ele>1221.9729003906</ele>
        <time>2015-12-29T13:22:04Z</time>
      </trkpt>
      <trkpt lat="42.8974" lon="-0.10013">
        <ele>1223.4150390625</ele>
        <time>2015-12-29T13:22:18Z</time>
      </trkpt>
      <trkpt lat="42.8975" lon="-0.10007">
        <ele>1224.3762207031</ele>
        <time>2015-12-29T13:22:30Z</time>
      </trkpt>
      <trkpt lat="42.89763" lon="-0.1001">
        <ele>1226.298828125</ele>
        <time>2015-12-29T13:22:46Z</time>
      </trkpt>
      <trkpt lat="42.89777" lon="-0.10003">
        <ele>1227.7407226562</ele>
        <time>2015-12-29T13:23:05Z</time>
      </trkpt>
      <trkpt lat="42.8978" lon="-0.09994">
        <ele>1229.1828613281</ele>
        <time>2015-12-29T13:23:16Z</time>
      </trkpt>
      <trkpt lat="42.89784" lon="-0.09991">
        <ele>1228.7023925781</ele>
        <time>2015-12-29T13:23:26Z</time>
      </trkpt>
      <trkpt lat="42.89789" lon="-0.09978">
        <ele>1230.1442871094</ele>
        <time>2015-12-29T13:23:41Z</time>
      </trkpt>
      <trkpt lat="42.89794" lon="-0.09969">
        <ele>1232.0668945312</ele>
        <time>2015-12-29T13:23:54Z</time>
      </trkpt>
      <trkpt lat="42.89802" lon="-0.09958">
        <ele>1234.9509277344</ele>
        <time>2015-12-29T13:24:08Z</time>
      </trkpt>
      <trkpt lat="42.89808" lon="-0.09945">
        <ele>1236.8732910156</ele>
        <time>2015-12-29T13:24:21Z</time>
      </trkpt>
      <trkpt lat="42.89808" lon="-0.09944">
        <ele>1237.3540039062</ele>
        <time>2015-12-29T13:24:22Z</time>
      </trkpt>
      <trkpt lat="42.89814" lon="-0.09932">
        <ele>1238.7961425781</ele>
        <time>2015-12-29T13:24:34Z</time>
      </trkpt>
      <trkpt lat="42.8982" lon="-0.09918">
        <ele>1240.2380371094</ele>
        <time>2015-12-29T13:24:49Z</time>
      </trkpt>
      <trkpt lat="42.89821" lon="-0.09914">
        <ele>1240.2380371094</ele>
        <time>2015-12-29T13:24:53Z</time>
      </trkpt>
      <trkpt lat="42.89828" lon="-0.09898">
        <ele>1243.1218261719</ele>
        <time>2015-12-29T13:25:09Z</time>
      </trkpt>
      <trkpt lat="42.89832" lon="-0.09885">
        <ele>1245.525390625</ele>
        <time>2015-12-29T13:25:21Z</time>
      </trkpt>
      <trkpt lat="42.89837" lon="-0.09869">
        <ele>1247.9287109375</ele>
        <time>2015-12-29T13:25:35Z</time>
      </trkpt>
      <trkpt lat="42.89843" lon="-0.09852">
        <ele>1249.8513183594</ele>
        <time>2015-12-29T13:25:50Z</time>
      </trkpt>
      <trkpt lat="42.89847" lon="-0.09848">
        <ele>1250.8125</ele>
        <time>2015-12-29T13:26:03Z</time>
      </trkpt>
      <trkpt lat="42.89852" lon="-0.09841">
        <ele>1250.33203125</ele>
        <time>2015-12-29T13:26:09Z</time>
      </trkpt>
      <trkpt lat="42.89855" lon="-0.09834">
        <ele>1251.2932128906</ele>
        <time>2015-12-29T13:26:13Z</time>
      </trkpt>
      <trkpt lat="42.89858" lon="-0.09821">
        <ele>1251.7739257812</ele>
        <time>2015-12-29T13:26:21Z</time>
      </trkpt>
      <trkpt lat="42.8987" lon="-0.09811">
        <ele>1252.7351074219</ele>
        <time>2015-12-29T13:26:33Z</time>
      </trkpt>
      <trkpt lat="42.89881" lon="-0.09789">
        <ele>1254.6577148438</ele>
        <time>2015-12-29T13:26:50Z</time>
      </trkpt>
      <trkpt lat="42.89884" lon="-0.09783">
        <ele>1255.1384277344</ele>
        <time>2015-12-29T13:27:04Z</time>
      </trkpt>
      <trkpt lat="42.8989" lon="-0.09785">
        <ele>1254.6577148438</ele>
        <time>2015-12-29T13:27:28Z</time>
      </trkpt>
      <trkpt lat="42.89887" lon="-0.09782">
        <ele>1255.1384277344</ele>
        <time>2015-12-29T13:28:04Z</time>
      </trkpt>
      <trkpt lat="42.89887" lon="-0.09784">
        <ele>1255.1384277344</ele>
        <time>2015-12-29T13:28:13Z</time>
      </trkpt>
      <trkpt lat="42.89875" lon="-0.09805">
        <ele>1254.6577148438</ele>
        <time>2015-12-29T13:28:27Z</time>
      </trkpt>
      <trkpt lat="42.89874" lon="-0.09806">
        <ele>1254.1772460938</ele>
        <time>2015-12-29T13:28:28Z</time>
      </trkpt>
      <trkpt lat="42.8986" lon="-0.09823">
        <ele>1253.2158203125</ele>
        <time>2015-12-29T13:28:43Z</time>
      </trkpt>
      <trkpt lat="42.89852" lon="-0.09839">
        <ele>1251.7739257812</ele>
        <time>2015-12-29T13:28:59Z</time>
      </trkpt>
      <trkpt lat="42.89848" lon="-0.09852">
        <ele>1249.8513183594</ele>
        <time>2015-12-29T13:29:16Z</time>
      </trkpt>
      <trkpt lat="42.89848" lon="-0.09858">
        <ele>1249.3706054688</ele>
        <time>2015-12-29T13:29:46Z</time>
      </trkpt>
      <trkpt lat="42.89853" lon="-0.09861">
        <ele>1248.8898925781</ele>
        <time>2015-12-29T13:30:16Z</time>
      </trkpt>
      <trkpt lat="42.89844" lon="-0.09869">
        <ele>1245.525390625</ele>
        <time>2015-12-29T13:30:32Z</time>
      </trkpt>
      <trkpt lat="42.89843" lon="-0.0987">
        <ele>1248.8898925781</ele>
        <time>2015-12-29T13:30:33Z</time>
      </trkpt>
      <trkpt lat="42.89839" lon="-0.09879">
        <ele>1245.525390625</ele>
        <time>2015-12-29T13:30:44Z</time>
      </trkpt>
      <trkpt lat="42.89832" lon="-0.09886">
        <ele>1244.0834960938</ele>
        <time>2015-12-29T13:30:54Z</time>
      </trkpt>
      <trkpt lat="42.89825" lon="-0.09904">
        <ele>1242.1606445312</ele>
        <time>2015-12-29T13:31:09Z</time>
      </trkpt>
      <trkpt lat="42.89822" lon="-0.09916">
        <ele>1239.2766113281</ele>
        <time>2015-12-29T13:31:20Z</time>
      </trkpt>
      <trkpt lat="42.89822" lon="-0.09917">
        <ele>1239.2766113281</ele>
        <time>2015-12-29T13:31:21Z</time>
      </trkpt>
      <trkpt lat="42.89815" lon="-0.09934">
        <ele>1236.3928222656</ele>
        <time>2015-12-29T13:31:36Z</time>
      </trkpt>
      <trkpt lat="42.89814" lon="-0.09935">
        <ele>1236.3928222656</ele>
        <time>2015-12-29T13:31:37Z</time>
      </trkpt>
      <trkpt lat="42.89808" lon="-0.09945">
        <ele>1234.4702148438</ele>
        <time>2015-12-29T13:31:46Z</time>
      </trkpt>
      <trkpt lat="42.89801" lon="-0.09956">
        <ele>1233.0280761719</ele>
        <time>2015-12-29T13:32:00Z</time>
      </trkpt>
      <trkpt lat="42.89793" lon="-0.09971">
        <ele>1230.625</ele>
        <time>2015-12-29T13:32:13Z</time>
      </trkpt>
      <trkpt lat="42.89788" lon="-0.09984">
        <ele>1229.6635742188</ele>
        <time>2015-12-29T13:32:25Z</time>
      </trkpt>
      <trkpt lat="42.89779" lon="-0.09998">
        <ele>1226.298828125</ele>
        <time>2015-12-29T13:32:36Z</time>
      </trkpt>
      <trkpt lat="42.89769" lon="-0.10008">
        <ele>1224.8569335938</ele>
        <time>2015-12-29T13:32:49Z</time>
      </trkpt>
      <trkpt lat="42.89763" lon="-0.10009">
        <ele>1223.4150390625</ele>
        <time>2015-12-29T13:32:55Z</time>
      </trkpt>
      <trkpt lat="42.89745" lon="-0.10012">
        <ele>1220.5310058594</ele>
        <time>2015-12-29T13:33:14Z</time>
      </trkpt>
      <trkpt lat="42.89746" lon="-0.10022">
        <ele>1219.5698242188</ele>
        <time>2015-12-29T13:33:30Z</time>
      </trkpt>
      <trkpt lat="42.89744" lon="-0.10022">
        <ele>1219.5698242188</ele>
        <time>2015-12-29T13:34:12Z</time>
      </trkpt>
      <trkpt lat="42.89738" lon="-0.1002">
        <ele>1220.0502929688</ele>
        <time>2015-12-29T13:34:29Z</time>
      </trkpt>
      <trkpt lat="42.89723" lon="-0.10022">
        <ele>1218.6083984375</ele>
        <time>2015-12-29T13:34:46Z</time>
      </trkpt>
      <trkpt lat="42.89705" lon="-0.10026">
        <ele>1215.724609375</ele>
        <time>2015-12-29T13:35:07Z</time>
      </trkpt>
      <trkpt lat="42.89692" lon="-0.10036">
        <ele>1214.7631835938</ele>
        <time>2015-12-29T13:35:23Z</time>
      </trkpt>
      <trkpt lat="42.89675" lon="-0.10048">
        <ele>1211.3984375</ele>
        <time>2015-12-29T13:35:42Z</time>
      </trkpt>
      <trkpt lat="42.89662" lon="-0.10058">
        <ele>1209.4758300781</ele>
        <time>2015-12-29T13:35:59Z</time>
      </trkpt>
      <trkpt lat="42.89652" lon="-0.10068">
        <ele>1208.9951171875</ele>
        <time>2015-12-29T13:36:11Z</time>
      </trkpt>
      <trkpt lat="42.89652" lon="-0.10069">
        <ele>1208.9951171875</ele>
        <time>2015-12-29T13:36:12Z</time>
      </trkpt>
      <trkpt lat="42.89639" lon="-0.10074">
        <ele>1208.0339355469</ele>
        <time>2015-12-29T13:36:23Z</time>
      </trkpt>
      <trkpt lat="42.89629" lon="-0.10077">
        <ele>1207.0725097656</ele>
        <time>2015-12-29T13:36:32Z</time>
      </trkpt>
      <trkpt lat="42.89607" lon="-0.10085">
        <ele>1204.1887207031</ele>
        <time>2015-12-29T13:36:50Z</time>
      </trkpt>
      <trkpt lat="42.89602" lon="-0.10089">
        <ele>1204.1887207031</ele>
        <time>2015-12-29T13:36:56Z</time>
      </trkpt>
      <trkpt lat="42.896" lon="-0.10091">
        <ele>1203.2272949219</ele>
        <time>2015-12-29T13:36:59Z</time>
      </trkpt>
      <trkpt lat="42.89598" lon="-0.101">
        <ele>1202.2658691406</ele>
        <time>2015-12-29T13:37:04Z</time>
      </trkpt>
      <trkpt lat="42.89598" lon="-0.10111">
        <ele>1202.2658691406</ele>
        <time>2015-12-29T13:37:10Z</time>
      </trkpt>
      <trkpt lat="42.89586" lon="-0.10137">
        <ele>1199.3820800781</ele>
        <time>2015-12-29T13:37:30Z</time>
      </trkpt>
      <trkpt lat="42.8957" lon="-0.10146">
        <ele>1197.4594726562</ele>
        <time>2015-12-29T13:37:45Z</time>
      </trkpt>
      <trkpt lat="42.89549" lon="-0.1015">
        <ele>1196.4982910156</ele>
        <time>2015-12-29T13:38:01Z</time>
      </trkpt>
      <trkpt lat="42.89545" lon="-0.10151">
        <ele>1195.5366210938</ele>
        <time>2015-12-29T13:38:04Z</time>
      </trkpt>
      <trkpt lat="42.89533" lon="-0.10153">
        <ele>1194.0947265625</ele>
        <time>2015-12-29T13:38:15Z</time>
      </trkpt>
      <trkpt lat="42.89526" lon="-0.1016">
        <ele>1193.1333007812</ele>
        <time>2015-12-29T13:38:22Z</time>
      </trkpt>
      <trkpt lat="42.89515" lon="-0.10179">
        <ele>1190.2495117188</ele>
        <time>2015-12-29T13:38:40Z</time>
      </trkpt>
      <trkpt lat="42.89504" lon="-0.10199">
        <ele>1186.884765625</ele>
        <time>2015-12-29T13:38:57Z</time>
      </trkpt>
      <trkpt lat="42.8949" lon="-0.10212">
        <ele>1185.9235839844</ele>
        <time>2015-12-29T13:39:13Z</time>
      </trkpt>
      <trkpt lat="42.89489" lon="-0.10213">
        <ele>1185.9235839844</ele>
        <time>2015-12-29T13:39:14Z</time>
      </trkpt>
      <trkpt lat="42.89479" lon="-0.10216">
        <ele>1184.4816894531</ele>
        <time>2015-12-29T13:39:22Z</time>
      </trkpt>
      <trkpt lat="42.89468" lon="-0.10224">
        <ele>1183.5202636719</ele>
        <time>2015-12-29T13:39:33Z</time>
      </trkpt>
      <trkpt lat="42.89454" lon="-0.10229">
        <ele>1181.1171875</ele>
        <time>2015-12-29T13:39:45Z</time>
      </trkpt>
      <trkpt lat="42.89441" lon="-0.10236">
        <ele>1179.1940917969</ele>
        <time>2015-12-29T13:39:58Z</time>
      </trkpt>
      <trkpt lat="42.89426" lon="-0.10244">
        <ele>1177.7521972656</ele>
        <time>2015-12-29T13:40:12Z</time>
      </trkpt>
      <trkpt lat="42.89408" lon="-0.10254">
        <ele>1174.8684082031</ele>
        <time>2015-12-29T13:40:32Z</time>
      </trkpt>
      <trkpt lat="42.89414" lon="-0.10256">
        <ele>1173.9069824219</ele>
        <time>2015-12-29T13:40:38Z</time>
      </trkpt>
      <trkpt lat="42.8942" lon="-0.10255">
        <ele>1173.4265136719</ele>
        <time>2015-12-29T13:40:43Z</time>
      </trkpt>
      <trkpt lat="42.89431" lon="-0.10252">
        <ele>1172.4650878906</ele>
        <time>2015-12-29T13:40:52Z</time>
      </trkpt>
      <trkpt lat="42.8945" lon="-0.10248">
        <ele>1171.5036621094</ele>
        <time>2015-12-29T13:41:08Z</time>
      </trkpt>
      <trkpt lat="42.89468" lon="-0.10245">
        <ele>1169.1005859375</ele>
        <time>2015-12-29T13:41:25Z</time>
      </trkpt>
      <trkpt lat="42.89484" lon="-0.10246">
        <ele>1166.697265625</ele>
        <time>2015-12-29T13:41:40Z</time>
      </trkpt>
      <trkpt lat="42.89502" lon="-0.10244">
        <ele>1164.2939453125</ele>
        <time>2015-12-29T13:41:56Z</time>
      </trkpt>
      <trkpt lat="42.89516" lon="-0.10229">
        <ele>1162.8518066406</ele>
        <time>2015-12-29T13:42:12Z</time>
      </trkpt>
      <trkpt lat="42.89529" lon="-0.1021">
        <ele>1160.4484863281</ele>
        <time>2015-12-29T13:42:30Z</time>
      </trkpt>
      <trkpt lat="42.89532" lon="-0.10207">
        <ele>1159.9677734375</ele>
        <time>2015-12-29T13:42:33Z</time>
      </trkpt>
      <trkpt lat="42.8955" lon="-0.10199">
        <ele>1157.083984375</ele>
        <time>2015-12-29T13:42:51Z</time>
      </trkpt>
      <trkpt lat="42.89568" lon="-0.1019">
        <ele>1154.6806640625</ele>
        <time>2015-12-29T13:43:08Z</time>
      </trkpt>
      <trkpt lat="42.89584" lon="-0.10188">
        <ele>1153.7194824219</ele>
        <time>2015-12-29T13:43:21Z</time>
      </trkpt>
      <trkpt lat="42.89602" lon="-0.10187">
        <ele>1150.8354492188</ele>
        <time>2015-12-29T13:43:36Z</time>
      </trkpt>
      <trkpt lat="42.89621" lon="-0.10181">
        <ele>1148.4321289062</ele>
        <time>2015-12-29T13:43:53Z</time>
      </trkpt>
      <trkpt lat="42.89634" lon="-0.10183">
        <ele>1146.9899902344</ele>
        <time>2015-12-29T13:44:07Z</time>
      </trkpt>
      <trkpt lat="42.89649" lon="-0.10195">
        <ele>1145.5480957031</ele>
        <time>2015-12-29T13:44:22Z</time>
      </trkpt>
      <trkpt lat="42.89668" lon="-0.10198">
        <ele>1144.1062011719</ele>
        <time>2015-12-29T13:44:38Z</time>
      </trkpt>
      <trkpt lat="42.89678" lon="-0.10196">
        <ele>1142.6643066406</ele>
        <time>2015-12-29T13:44:54Z</time>
      </trkpt>
      <trkpt lat="42.89681" lon="-0.10198">
        <ele>1141.7028808594</ele>
        <time>2015-12-29T13:44:57Z</time>
      </trkpt>
      <trkpt lat="42.89679" lon="-0.10211">
        <ele>1138.8190917969</ele>
        <time>2015-12-29T13:45:06Z</time>
      </trkpt>
      <trkpt lat="42.89662" lon="-0.10216">
        <ele>1135.4543457031</ele>
        <time>2015-12-29T13:45:21Z</time>
      </trkpt>
      <trkpt lat="42.89641" lon="-0.10222">
        <ele>1133.0510253906</ele>
        <time>2015-12-29T13:45:38Z</time>
      </trkpt>
      <trkpt lat="42.89631" lon="-0.10223">
        <ele>1132.08984375</ele>
        <time>2015-12-29T13:45:45Z</time>
      </trkpt>
      <trkpt lat="42.89624" lon="-0.10224">
        <ele>1131.1284179688</ele>
        <time>2015-12-29T13:45:52Z</time>
      </trkpt>
      <trkpt lat="42.89609" lon="-0.10231">
        <ele>1127.283203125</ele>
        <time>2015-12-29T13:46:08Z</time>
      </trkpt>
      <trkpt lat="42.89595" lon="-0.10237">
        <ele>1125.8410644531</ele>
        <time>2015-12-29T13:46:23Z</time>
      </trkpt>
      <trkpt lat="42.8959" lon="-0.10254">
        <ele>1123.9184570312</ele>
        <time>2015-12-29T13:46:36Z</time>
      </trkpt>
      <trkpt lat="42.89585" lon="-0.10272">
        <ele>1121.0346679688</ele>
        <time>2015-12-29T13:46:49Z</time>
      </trkpt>
      <trkpt lat="42.89571" lon="-0.10283">
        <ele>1118.1506347656</ele>
        <time>2015-12-29T13:47:05Z</time>
      </trkpt>
      <trkpt lat="42.89563" lon="-0.10302">
        <ele>1115.2666015625</ele>
        <time>2015-12-29T13:47:21Z</time>
      </trkpt>
      <trkpt lat="42.89557" lon="-0.10315">
        <ele>1113.8244628906</ele>
        <time>2015-12-29T13:47:32Z</time>
      </trkpt>
      <trkpt lat="42.89541" lon="-0.10329">
        <ele>1110.9406738281</ele>
        <time>2015-12-29T13:47:49Z</time>
      </trkpt>
      <trkpt lat="42.89534" lon="-0.10333">
        <ele>1109.4987792969</ele>
        <time>2015-12-29T13:48:09Z</time>
      </trkpt>
      <trkpt lat="42.89521" lon="-0.10343">
        <ele>1107.576171875</ele>
        <time>2015-12-29T13:48:25Z</time>
      </trkpt>
      <trkpt lat="42.89511" lon="-0.10351">
        <ele>1106.6147460938</ele>
        <time>2015-12-29T13:48:35Z</time>
      </trkpt>
      <trkpt lat="42.89497" lon="-0.10358">
        <ele>1104.6921386719</ele>
        <time>2015-12-29T13:48:50Z</time>
      </trkpt>
      <trkpt lat="42.89492" lon="-0.10367">
        <ele>1103.7309570312</ele>
        <time>2015-12-29T13:49:02Z</time>
      </trkpt>
      <trkpt lat="42.89485" lon="-0.10378">
        <ele>1103.7309570312</ele>
        <time>2015-12-29T13:49:19Z</time>
      </trkpt>
      <trkpt lat="42.89466" lon="-0.10387">
        <ele>1101.3276367188</ele>
        <time>2015-12-29T13:49:33Z</time>
      </trkpt>
      <trkpt lat="42.89453" lon="-0.10396">
        <ele>1099.4047851562</ele>
        <time>2015-12-29T13:49:47Z</time>
      </trkpt>
      <trkpt lat="42.89445" lon="-0.10406">
        <ele>1097.4821777344</ele>
        <time>2015-12-29T13:49:57Z</time>
      </trkpt>
      <trkpt lat="42.8944" lon="-0.10411">
        <ele>1096.5209960938</ele>
        <time>2015-12-29T13:50:06Z</time>
      </trkpt>
      <trkpt lat="42.89431" lon="-0.10417">
        <ele>1094.1176757812</ele>
        <time>2015-12-29T13:50:17Z</time>
      </trkpt>
      <trkpt lat="42.89422" lon="-0.10424">
        <ele>1093.6369628906</ele>
        <time>2015-12-29T13:50:27Z</time>
      </trkpt>
      <trkpt lat="42.8941" lon="-0.10434">
        <ele>1091.2336425781</ele>
        <time>2015-12-29T13:50:41Z</time>
      </trkpt>
      <trkpt lat="42.894" lon="-0.10448">
        <ele>1088.8305664062</ele>
        <time>2015-12-29T13:50:53Z</time>
      </trkpt>
      <trkpt lat="42.89397" lon="-0.10456">
        <ele>1086.9077148438</ele>
        <time>2015-12-29T13:51:02Z</time>
      </trkpt>
      <trkpt lat="42.89401" lon="-0.10459">
        <ele>1086.4272460938</ele>
        <time>2015-12-29T13:51:08Z</time>
      </trkpt>
      <trkpt lat="42.8941" lon="-0.10448">
        <ele>1085.4658203125</ele>
        <time>2015-12-29T13:51:17Z</time>
      </trkpt>
      <trkpt lat="42.89428" lon="-0.10436">
        <ele>1084.9853515625</ele>
        <time>2015-12-29T13:51:35Z</time>
      </trkpt>
      <trkpt lat="42.89445" lon="-0.10429">
        <ele>1082.1010742188</ele>
        <time>2015-12-29T13:51:51Z</time>
      </trkpt>
      <trkpt lat="42.89461" lon="-0.10421">
        <ele>1080.1784667969</ele>
        <time>2015-12-29T13:52:05Z</time>
      </trkpt>
      <trkpt lat="42.89481" lon="-0.10413">
        <ele>1079.2170410156</ele>
        <time>2015-12-29T13:52:23Z</time>
      </trkpt>
      <trkpt lat="42.895" lon="-0.10411">
        <ele>1076.3332519531</ele>
        <time>2015-12-29T13:52:38Z</time>
      </trkpt>
      <trkpt lat="42.89501" lon="-0.10411">
        <ele>1076.8139648438</ele>
        <time>2015-12-29T13:52:39Z</time>
      </trkpt>
      <trkpt lat="42.89516" lon="-0.1041">
        <ele>1074.8913574219</ele>
        <time>2015-12-29T13:52:52Z</time>
      </trkpt>
      <trkpt lat="42.89538" lon="-0.10397">
        <ele>1072.4880371094</ele>
        <time>2015-12-29T13:53:15Z</time>
      </trkpt>
      <trkpt lat="42.8955" lon="-0.10387">
        <ele>1070.5654296875</ele>
        <time>2015-12-29T13:53:28Z</time>
      </trkpt>
      <trkpt lat="42.89569" lon="-0.10379">
        <ele>1070.0847167969</ele>
        <time>2015-12-29T13:53:44Z</time>
      </trkpt>
      <trkpt lat="42.89586" lon="-0.10374">
        <ele>1068.162109375</ele>
        <time>2015-12-29T13:54:01Z</time>
      </trkpt>
      <trkpt lat="42.89603" lon="-0.10366">
        <ele>1067.2006835938</ele>
        <time>2015-12-29T13:54:16Z</time>
      </trkpt>
      <trkpt lat="42.8962" lon="-0.10361">
        <ele>1064.7973632812</ele>
        <time>2015-12-29T13:54:32Z</time>
      </trkpt>
      <trkpt lat="42.89619" lon="-0.10371">
        <ele>1062.8747558594</ele>
        <time>2015-12-29T13:54:41Z</time>
      </trkpt>
      <trkpt lat="42.89595" lon="-0.10385">
        <ele>1060.9521484375</ele>
        <time>2015-12-29T13:55:01Z</time>
      </trkpt>
      <trkpt lat="42.89578" lon="-0.10396">
        <ele>1059.0295410156</ele>
        <time>2015-12-29T13:55:20Z</time>
      </trkpt>
      <trkpt lat="42.8956" lon="-0.10415">
        <ele>1058.068359375</ele>
        <time>2015-12-29T13:55:36Z</time>
      </trkpt>
      <trkpt lat="42.89547" lon="-0.10432">
        <ele>1058.068359375</ele>
        <time>2015-12-29T13:55:52Z</time>
      </trkpt>
      <trkpt lat="42.8953" lon="-0.10453">
        <ele>1054.7036132812</ele>
        <time>2015-12-29T13:56:12Z</time>
      </trkpt>
      <trkpt lat="42.8952" lon="-0.10466">
        <ele>1053.7424316406</ele>
        <time>2015-12-29T13:56:26Z</time>
      </trkpt>
      <trkpt lat="42.8951" lon="-0.1048">
        <ele>1051.8195800781</ele>
        <time>2015-12-29T13:56:40Z</time>
      </trkpt>
      <trkpt lat="42.895" lon="-0.10493">
        <ele>1049.4162597656</ele>
        <time>2015-12-29T13:56:52Z</time>
      </trkpt>
      <trkpt lat="42.8949" lon="-0.10508">
        <ele>1047.4936523438</ele>
        <time>2015-12-29T13:57:06Z</time>
      </trkpt>
      <trkpt lat="42.89482" lon="-0.1052">
        <ele>1045.5710449219</ele>
        <time>2015-12-29T13:57:19Z</time>
      </trkpt>
      <trkpt lat="42.89472" lon="-0.10535">
        <ele>1044.1291503906</ele>
        <time>2015-12-29T13:57:33Z</time>
      </trkpt>
      <trkpt lat="42.89471" lon="-0.10537">
        <ele>1044.1291503906</ele>
        <time>2015-12-29T13:57:37Z</time>
      </trkpt>
      <trkpt lat="42.89469" lon="-0.10538">
        <ele>1044.1291503906</ele>
        <time>2015-12-29T13:57:39Z</time>
      </trkpt>
      <trkpt lat="42.89451" lon="-0.10547">
        <ele>1045.5710449219</ele>
        <time>2015-12-29T13:57:55Z</time>
      </trkpt>
      <trkpt lat="42.89432" lon="-0.1055">
        <ele>1047.0129394531</ele>
        <time>2015-12-29T13:58:11Z</time>
      </trkpt>
      <trkpt lat="42.89424" lon="-0.10547">
        <ele>1048.935546875</ele>
        <time>2015-12-29T13:58:20Z</time>
      </trkpt>
      <trkpt lat="42.89409" lon="-0.10541">
        <ele>1050.8581542969</ele>
        <time>2015-12-29T13:58:36Z</time>
      </trkpt>
      <trkpt lat="42.89401" lon="-0.10537">
        <ele>1050.8581542969</ele>
        <time>2015-12-29T13:58:45Z</time>
      </trkpt>
      <trkpt lat="42.89382" lon="-0.1054">
        <ele>1049.4162597656</ele>
        <time>2015-12-29T13:59:04Z</time>
      </trkpt>
      <trkpt lat="42.89362" lon="-0.10537">
        <ele>1046.5324707031</ele>
        <time>2015-12-29T13:59:21Z</time>
      </trkpt>
      <trkpt lat="42.8936" lon="-0.10537">
        <ele>1046.5324707031</ele>
        <time>2015-12-29T13:59:23Z</time>
      </trkpt>
      <trkpt lat="42.89341" lon="-0.10543">
        <ele>1046.0517578125</ele>
        <time>2015-12-29T13:59:39Z</time>
      </trkpt>
      <trkpt lat="42.89325" lon="-0.10551">
        <ele>1047.9743652344</ele>
        <time>2015-12-29T13:59:54Z</time>
      </trkpt>
      <trkpt lat="42.89301" lon="-0.10559">
        <ele>1047.4936523438</ele>
        <time>2015-12-29T14:00:12Z</time>
      </trkpt>
      <trkpt lat="42.89299" lon="-0.10562">
        <ele>1047.0129394531</ele>
        <time>2015-12-29T14:00:16Z</time>
      </trkpt>
      <trkpt lat="42.89307" lon="-0.10584">
        <ele>1047.0129394531</ele>
        <time>2015-12-29T14:00:28Z</time>
      </trkpt>
      <trkpt lat="42.89321" lon="-0.10609">
        <ele>1047.0129394531</ele>
        <time>2015-12-29T14:00:44Z</time>
      </trkpt>
      <trkpt lat="42.89327" lon="-0.10624">
        <ele>1047.9743652344</ele>
        <time>2015-12-29T14:00:55Z</time>
      </trkpt>
      <trkpt lat="42.89319" lon="-0.10644">
        <ele>1050.3776855469</ele>
        <time>2015-12-29T14:01:11Z</time>
      </trkpt>
      <trkpt lat="42.89303" lon="-0.10668">
        <ele>1051.3388671875</ele>
        <time>2015-12-29T14:01:30Z</time>
      </trkpt>
      <trkpt lat="42.89294" lon="-0.10684">
        <ele>1051.3388671875</ele>
        <time>2015-12-29T14:01:42Z</time>
      </trkpt>
      <trkpt lat="42.8928" lon="-0.10709">
        <ele>1051.3388671875</ele>
        <time>2015-12-29T14:02:00Z</time>
      </trkpt>
      <trkpt lat="42.89273" lon="-0.10718">
        <ele>1050.8581542969</ele>
        <time>2015-12-29T14:02:08Z</time>
      </trkpt>
      <trkpt lat="42.89253" lon="-0.10729">
        <ele>1051.3388671875</ele>
        <time>2015-12-29T14:02:26Z</time>
      </trkpt>
      <trkpt lat="42.89233" lon="-0.10733">
        <ele>1050.8581542969</ele>
        <time>2015-12-29T14:02:43Z</time>
      </trkpt>
      <trkpt lat="42.89208" lon="-0.10723">
        <ele>1050.3776855469</ele>
        <time>2015-12-29T14:03:04Z</time>
      </trkpt>
      <trkpt lat="42.89186" lon="-0.10713">
        <ele>1049.4162597656</ele>
        <time>2015-12-29T14:03:24Z</time>
      </trkpt>
      <trkpt lat="42.89165" lon="-0.10723">
        <ele>1048.4548339844</ele>
        <time>2015-12-29T14:03:40Z</time>
      </trkpt>
      <trkpt lat="42.89142" lon="-0.1073">
        <ele>1047.4936523438</ele>
        <time>2015-12-29T14:03:58Z</time>
      </trkpt>
      <trkpt lat="42.8914" lon="-0.10751">
        <ele>1046.5324707031</ele>
        <time>2015-12-29T14:04:13Z</time>
      </trkpt>
      <trkpt lat="42.89135" lon="-0.10767">
        <ele>1046.0517578125</ele>
        <time>2015-12-29T14:04:24Z</time>
      </trkpt>
      <trkpt lat="42.89117" lon="-0.10782">
        <ele>1045.0903320312</ele>
        <time>2015-12-29T14:04:40Z</time>
      </trkpt>
      <trkpt lat="42.89094" lon="-0.1079">
        <ele>1045.0903320312</ele>
        <time>2015-12-29T14:04:59Z</time>
      </trkpt>
      <trkpt lat="42.8909" lon="-0.1079">
        <ele>1044.1291503906</ele>
        <time>2015-12-29T14:05:02Z</time>
      </trkpt>
      <trkpt lat="42.89087" lon="-0.10792">
        <ele>1044.6096191406</ele>
        <time>2015-12-29T14:05:05Z</time>
      </trkpt>
      <trkpt lat="42.89081" lon="-0.10796">
        <ele>1044.1291503906</ele>
        <time>2015-12-29T14:05:10Z</time>
      </trkpt>
      <trkpt lat="42.89063" lon="-0.10813">
        <ele>1043.1677246094</ele>
        <time>2015-12-29T14:05:27Z</time>
      </trkpt>
      <trkpt lat="42.89049" lon="-0.10831">
        <ele>1042.2065429688</ele>
        <time>2015-12-29T14:05:42Z</time>
      </trkpt>
      <trkpt lat="42.8904" lon="-0.10849">
        <ele>1040.2839355469</ele>
        <time>2015-12-29T14:05:57Z</time>
      </trkpt>
      <trkpt lat="42.89024" lon="-0.10872">
        <ele>1039.8032226562</ele>
        <time>2015-12-29T14:06:14Z</time>
      </trkpt>
      <trkpt lat="42.89009" lon="-0.10891">
        <ele>1039.8032226562</ele>
        <time>2015-12-29T14:06:29Z</time>
      </trkpt>
      <trkpt lat="42.88996" lon="-0.10907">
        <ele>1039.8032226562</ele>
        <time>2015-12-29T14:06:45Z</time>
      </trkpt>
      <trkpt lat="42.88986" lon="-0.10921">
        <ele>1039.8032226562</ele>
        <time>2015-12-29T14:06:59Z</time>
      </trkpt>
      <trkpt lat="42.88976" lon="-0.1093">
        <ele>1038.8420410156</ele>
        <time>2015-12-29T14:07:08Z</time>
      </trkpt>
      <trkpt lat="42.88963" lon="-0.10944">
        <ele>1037.8806152344</ele>
        <time>2015-12-29T14:07:23Z</time>
      </trkpt>
      <trkpt lat="42.8895" lon="-0.10962">
        <ele>1036.9191894531</ele>
        <time>2015-12-29T14:07:38Z</time>
      </trkpt>
      <trkpt lat="42.88944" lon="-0.10972">
        <ele>1036.9191894531</ele>
        <time>2015-12-29T14:07:47Z</time>
      </trkpt>
      <trkpt lat="42.8893" lon="-0.10985">
        <ele>1036.4387207031</ele>
        <time>2015-12-29T14:07:59Z</time>
      </trkpt>
      <trkpt lat="42.88921" lon="-0.10992">
        <ele>1035.9577636719</ele>
        <time>2015-12-29T14:08:15Z</time>
      </trkpt>
      <trkpt lat="42.88913" lon="-0.11">
        <ele>1034.9965820312</ele>
        <time>2015-12-29T14:08:27Z</time>
      </trkpt>
      <trkpt lat="42.88905" lon="-0.1101">
        <ele>1034.5158691406</ele>
        <time>2015-12-29T14:08:38Z</time>
      </trkpt>
      <trkpt lat="42.88885" lon="-0.11027">
        <ele>1033.0737304688</ele>
        <time>2015-12-29T14:08:54Z</time>
      </trkpt>
      <trkpt lat="42.88879" lon="-0.11033">
        <ele>1032.5932617188</ele>
        <time>2015-12-29T14:09:01Z</time>
      </trkpt>
      <trkpt lat="42.88856" lon="-0.11044">
        <ele>1032.5932617188</ele>
        <time>2015-12-29T14:09:18Z</time>
      </trkpt>
      <trkpt lat="42.88835" lon="-0.11051">
        <ele>1032.1125488281</ele>
        <time>2015-12-29T14:09:35Z</time>
      </trkpt>
      <trkpt lat="42.88816" lon="-0.1106">
        <ele>1029.7092285156</ele>
        <time>2015-12-29T14:09:49Z</time>
      </trkpt>
      <trkpt lat="42.88808" lon="-0.11063">
        <ele>1028.748046875</ele>
        <time>2015-12-29T14:09:56Z</time>
      </trkpt>
      <trkpt lat="42.88792" lon="-0.11068">
        <ele>1028.2673339844</ele>
        <time>2015-12-29T14:10:10Z</time>
      </trkpt>
      <trkpt lat="42.88779" lon="-0.11075">
        <ele>1027.3061523438</ele>
        <time>2015-12-29T14:10:27Z</time>
      </trkpt>
      <trkpt lat="42.88781" lon="-0.11075">
        <ele>1026.3447265625</ele>
        <time>2015-12-29T14:10:45Z</time>
      </trkpt>
      <trkpt lat="42.88774" lon="-0.11076">
        <ele>1025.3833007812</ele>
        <time>2015-12-29T14:10:57Z</time>
      </trkpt>
      <trkpt lat="42.88768" lon="-0.11081">
        <ele>1023.94140625</ele>
        <time>2015-12-29T14:11:10Z</time>
      </trkpt>
      <trkpt lat="42.88782" lon="-0.11079">
        <ele>1022.0187988281</ele>
        <time>2015-12-29T14:11:26Z</time>
      </trkpt>
      <trkpt lat="42.88784" lon="-0.11078">
        <ele>1021.5380859375</ele>
        <time>2015-12-29T14:11:28Z</time>
      </trkpt>
      <trkpt lat="42.88788" lon="-0.11077">
        <ele>1021.5380859375</ele>
        <time>2015-12-29T14:11:31Z</time>
      </trkpt>
      <trkpt lat="42.888" lon="-0.11069">
        <ele>1021.0576171875</ele>
        <time>2015-12-29T14:11:44Z</time>
      </trkpt>
      <trkpt lat="42.88811" lon="-0.11072">
        <ele>1019.134765625</ele>
        <time>2015-12-29T14:11:56Z</time>
      </trkpt>
      <trkpt lat="42.8881" lon="-0.11075">
        <ele>1018.6540527344</ele>
        <time>2015-12-29T14:11:58Z</time>
      </trkpt>
      <trkpt lat="42.88796" lon="-0.1108">
        <ele>1015.2895507812</ele>
        <time>2015-12-29T14:12:13Z</time>
      </trkpt>
      <trkpt lat="42.88785" lon="-0.11093">
        <ele>1013.8474121094</ele>
        <time>2015-12-29T14:12:23Z</time>
      </trkpt>
      <trkpt lat="42.88783" lon="-0.11094">
        <ele>1012.8862304688</ele>
        <time>2015-12-29T14:12:30Z</time>
      </trkpt>
      <trkpt lat="42.88792" lon="-0.11088">
        <ele>1011.9250488281</ele>
        <time>2015-12-29T14:12:38Z</time>
      </trkpt>
      <trkpt lat="42.88798" lon="-0.11086">
        <ele>1011.9250488281</ele>
        <time>2015-12-29T14:12:43Z</time>
      </trkpt>
      <trkpt lat="42.88814" lon="-0.11084">
        <ele>1009.5217285156</ele>
        <time>2015-12-29T14:12:58Z</time>
      </trkpt>
      <trkpt lat="42.88816" lon="-0.11087">
        <ele>1009.5217285156</ele>
        <time>2015-12-29T14:13:01Z</time>
      </trkpt>
      <trkpt lat="42.888" lon="-0.11094">
        <ele>1007.1184082031</ele>
        <time>2015-12-29T14:13:18Z</time>
      </trkpt>
      <trkpt lat="42.88787" lon="-0.11109">
        <ele>1005.1958007812</ele>
        <time>2015-12-29T14:13:35Z</time>
      </trkpt>
      <trkpt lat="42.88791" lon="-0.11104">
        <ele>1004.2346191406</ele>
        <time>2015-12-29T14:13:39Z</time>
      </trkpt>
      <trkpt lat="42.88803" lon="-0.11098">
        <ele>1003.2729492188</ele>
        <time>2015-12-29T14:13:51Z</time>
      </trkpt>
      <trkpt lat="42.88813" lon="-0.11103">
        <ele>1002.3115234375</ele>
        <time>2015-12-29T14:14:02Z</time>
      </trkpt>
      <trkpt lat="42.8882" lon="-0.11106">
        <ele>1001.3503417969</ele>
        <time>2015-12-29T14:14:11Z</time>
      </trkpt>
      <trkpt lat="42.88819" lon="-0.11108">
        <ele>1000.3891601562</ele>
        <time>2015-12-29T14:14:13Z</time>
      </trkpt>
      <trkpt lat="42.88805" lon="-0.11113">
        <ele>998.94702148438</ele>
        <time>2015-12-29T14:14:28Z</time>
      </trkpt>
      <trkpt lat="42.88791" lon="-0.11125">
        <ele>996.5439453125</ele>
        <time>2015-12-29T14:14:42Z</time>
      </trkpt>
      <trkpt lat="42.88789" lon="-0.11124">
        <ele>996.06323242188</ele>
        <time>2015-12-29T14:14:44Z</time>
      </trkpt>
      <trkpt lat="42.88793" lon="-0.11125">
        <ele>993.65991210938</ele>
        <time>2015-12-29T14:14:56Z</time>
      </trkpt>
      <trkpt lat="42.88802" lon="-0.11123">
        <ele>992.21801757812</ele>
        <time>2015-12-29T14:15:04Z</time>
      </trkpt>
      <trkpt lat="42.88806" lon="-0.11122">
        <ele>992.69873046875</ele>
        <time>2015-12-29T14:15:08Z</time>
      </trkpt>
      <trkpt lat="42.88811" lon="-0.11122">
        <ele>992.21801757812</ele>
        <time>2015-12-29T14:15:13Z</time>
      </trkpt>
      <trkpt lat="42.88823" lon="-0.11121">
        <ele>991.25659179688</ele>
        <time>2015-12-29T14:15:25Z</time>
      </trkpt>
      <trkpt lat="42.88824" lon="-0.11123">
        <ele>990.77587890625</ele>
        <time>2015-12-29T14:15:26Z</time>
      </trkpt>
      <trkpt lat="42.88814" lon="-0.11133">
        <ele>988.37280273438</ele>
        <time>2015-12-29T14:15:37Z</time>
      </trkpt>
      <trkpt lat="42.88799" lon="-0.1114">
        <ele>987.89184570312</ele>
        <time>2015-12-29T14:15:51Z</time>
      </trkpt>
      <trkpt lat="42.88792" lon="-0.11146">
        <ele>986.44995117188</ele>
        <time>2015-12-29T14:15:58Z</time>
      </trkpt>
      <trkpt lat="42.88791" lon="-0.11149">
        <ele>985.96923828125</ele>
        <time>2015-12-29T14:16:01Z</time>
      </trkpt>
      <trkpt lat="42.88808" lon="-0.11146">
        <ele>984.04663085938</ele>
        <time>2015-12-29T14:16:16Z</time>
      </trkpt>
      <trkpt lat="42.8882" lon="-0.1114">
        <ele>983.08520507812</ele>
        <time>2015-12-29T14:16:26Z</time>
      </trkpt>
      <trkpt lat="42.88827" lon="-0.1114">
        <ele>982.1240234375</ele>
        <time>2015-12-29T14:16:38Z</time>
      </trkpt>
      <trkpt lat="42.88819" lon="-0.11145">
        <ele>980.68212890625</ele>
        <time>2015-12-29T14:16:47Z</time>
      </trkpt>
      <trkpt lat="42.88804" lon="-0.11156">
        <ele>979.720703125</ele>
        <time>2015-12-29T14:17:03Z</time>
      </trkpt>
      <trkpt lat="42.88795" lon="-0.11163">
        <ele>978.75952148438</ele>
        <time>2015-12-29T14:17:18Z</time>
      </trkpt>
      <trkpt lat="42.88804" lon="-0.11162">
        <ele>976.8369140625</ele>
        <time>2015-12-29T14:17:29Z</time>
      </trkpt>
      <trkpt lat="42.88809" lon="-0.1116">
        <ele>977.31762695312</ele>
        <time>2015-12-29T14:17:32Z</time>
      </trkpt>
      <trkpt lat="42.88815" lon="-0.1116">
        <ele>975.87548828125</ele>
        <time>2015-12-29T14:17:38Z</time>
      </trkpt>
      <trkpt lat="42.88827" lon="-0.11159">
        <ele>975.39477539062</ele>
        <time>2015-12-29T14:17:51Z</time>
      </trkpt>
      <trkpt lat="42.88838" lon="-0.11155">
        <ele>974.43359375</ele>
        <time>2015-12-29T14:18:04Z</time>
      </trkpt>
      <trkpt lat="42.88839" lon="-0.11157">
        <ele>973.47241210938</ele>
        <time>2015-12-29T14:18:07Z</time>
      </trkpt>
      <trkpt lat="42.88832" lon="-0.1116">
        <ele>972.99169921875</ele>
        <time>2015-12-29T14:18:15Z</time>
      </trkpt>
      <trkpt lat="42.88824" lon="-0.11171">
        <ele>971.06884765625</ele>
        <time>2015-12-29T14:18:25Z</time>
      </trkpt>
      <trkpt lat="42.88816" lon="-0.11176">
        <ele>970.58813476562</ele>
        <time>2015-12-29T14:18:31Z</time>
      </trkpt>
      <trkpt lat="42.88808" lon="-0.11182">
        <ele>969.626953125</ele>
        <time>2015-12-29T14:18:40Z</time>
      </trkpt>
      <trkpt lat="42.88798" lon="-0.11187">
        <ele>967.7041015625</ele>
        <time>2015-12-29T14:18:55Z</time>
      </trkpt>
      <trkpt lat="42.88802" lon="-0.11188">
        <ele>966.26220703125</ele>
        <time>2015-12-29T14:19:01Z</time>
      </trkpt>
      <trkpt lat="42.88805" lon="-0.11187">
        <ele>966.26220703125</ele>
        <time>2015-12-29T14:19:03Z</time>
      </trkpt>
      <trkpt lat="42.8882" lon="-0.11182">
        <ele>964.8203125</ele>
        <time>2015-12-29T14:19:17Z</time>
      </trkpt>
      <trkpt lat="42.88831" lon="-0.11182">
        <ele>964.33959960938</ele>
        <time>2015-12-29T14:19:27Z</time>
      </trkpt>
      <trkpt lat="42.88846" lon="-0.11173">
        <ele>963.85888671875</ele>
        <time>2015-12-29T14:19:41Z</time>
      </trkpt>
      <trkpt lat="42.88848" lon="-0.11175">
        <ele>962.4169921875</ele>
        <time>2015-12-29T14:19:46Z</time>
      </trkpt>
      <trkpt lat="42.88839" lon="-0.11178">
        <ele>961.45581054688</ele>
        <time>2015-12-29T14:19:54Z</time>
      </trkpt>
      <trkpt lat="42.88831" lon="-0.11196">
        <ele>960.013671875</ele>
        <time>2015-12-29T14:20:08Z</time>
      </trkpt>
      <trkpt lat="42.88823" lon="-0.11207">
        <ele>958.09130859375</ele>
        <time>2015-12-29T14:20:22Z</time>
      </trkpt>
      <trkpt lat="42.88835" lon="-0.112">
        <ele>956.64916992188</ele>
        <time>2015-12-29T14:20:31Z</time>
      </trkpt>
      <trkpt lat="42.88845" lon="-0.11193">
        <ele>955.20703125</ele>
        <time>2015-12-29T14:20:45Z</time>
      </trkpt>
      <trkpt lat="42.88849" lon="-0.11183">
        <ele>954.24584960938</ele>
        <time>2015-12-29T14:20:56Z</time>
      </trkpt>
      <trkpt lat="42.8885" lon="-0.11191">
        <ele>953.76513671875</ele>
        <time>2015-12-29T14:21:02Z</time>
      </trkpt>
      <trkpt lat="42.88844" lon="-0.11204">
        <ele>951.84252929688</ele>
        <time>2015-12-29T14:21:15Z</time>
      </trkpt>
      <trkpt lat="42.88833" lon="-0.11214">
        <ele>950.88110351562</ele>
        <time>2015-12-29T14:21:28Z</time>
      </trkpt>
      <trkpt lat="42.88834" lon="-0.11218">
        <ele>949.43920898438</ele>
        <time>2015-12-29T14:21:32Z</time>
      </trkpt>
      <trkpt lat="42.88843" lon="-0.11214">
        <ele>947.5166015625</ele>
        <time>2015-12-29T14:21:43Z</time>
      </trkpt>
      <trkpt lat="42.88852" lon="-0.11208">
        <ele>946.55541992188</ele>
        <time>2015-12-29T14:21:54Z</time>
      </trkpt>
      <trkpt lat="42.88861" lon="-0.11202">
        <ele>946.07470703125</ele>
        <time>2015-12-29T14:22:05Z</time>
      </trkpt>
      <trkpt lat="42.88872" lon="-0.11196">
        <ele>942.71020507812</ele>
        <time>2015-12-29T14:22:17Z</time>
      </trkpt>
      <trkpt lat="42.88881" lon="-0.11196">
        <ele>941.26806640625</ele>
        <time>2015-12-29T14:22:27Z</time>
      </trkpt>
      <trkpt lat="42.88891" lon="-0.11208">
        <ele>941.74877929688</ele>
        <time>2015-12-29T14:22:41Z</time>
      </trkpt>
      <trkpt lat="42.88917" lon="-0.11215">
        <ele>941.26806640625</ele>
        <time>2015-12-29T14:23:10Z</time>
      </trkpt>
      <trkpt lat="42.88932" lon="-0.11223">
        <ele>941.26806640625</ele>
        <time>2015-12-29T14:24:24Z</time>
      </trkpt>
      <trkpt lat="42.88924" lon="-0.11221">
        <ele>941.74877929688</ele>
        <time>2015-12-29T14:24:38Z</time>
      </trkpt>
      <trkpt lat="42.88914" lon="-0.11222">
        <ele>941.74877929688</ele>
        <time>2015-12-29T14:25:07Z</time>
      </trkpt>
      <trkpt lat="42.88913" lon="-0.11217">
        <ele>942.71020507812</ele>
        <time>2015-12-29T14:25:24Z</time>
      </trkpt>
      <trkpt lat="42.88916" lon="-0.11215">
        <ele>942.2294921875</ele>
        <time>2015-12-29T14:25:43Z</time>
      </trkpt>
      <trkpt lat="42.88923" lon="-0.11211">
        <ele>941.26806640625</ele>
        <time>2015-12-29T14:27:10Z</time>
      </trkpt>
      <trkpt lat="42.88927" lon="-0.11202">
        <ele>942.71020507812</ele>
        <time>2015-12-29T14:27:31Z</time>
      </trkpt>
      <trkpt lat="42.88932" lon="-0.11201">
        <ele>943.67138671875</ele>
        <time>2015-12-29T14:27:40Z</time>
      </trkpt>
      <trkpt lat="42.88955" lon="-0.11212">
        <ele>943.67138671875</ele>
        <time>2015-12-29T14:28:04Z</time>
      </trkpt>
      <trkpt lat="42.88968" lon="-0.11216">
        <ele>944.15209960938</ele>
        <time>2015-12-29T14:28:17Z</time>
      </trkpt>
      <trkpt lat="42.88976" lon="-0.11217">
        <ele>943.67138671875</ele>
        <time>2015-12-29T14:28:24Z</time>
      </trkpt>
      <trkpt lat="42.88992" lon="-0.11219">
        <ele>943.67138671875</ele>
        <time>2015-12-29T14:28:37Z</time>
      </trkpt>
      <trkpt lat="42.89014" lon="-0.11218">
        <ele>944.15209960938</ele>
        <time>2015-12-29T14:28:53Z</time>
      </trkpt>
      <trkpt lat="42.89026" lon="-0.11218">
        <ele>943.67138671875</ele>
        <time>2015-12-29T14:29:05Z</time>
      </trkpt>
      <trkpt lat="42.8904" lon="-0.11215">
        <ele>943.67138671875</ele>
        <time>2015-12-29T14:29:17Z</time>
      </trkpt>
      <trkpt lat="42.89049" lon="-0.11221">
        <ele>943.19067382812</ele>
        <time>2015-12-29T14:29:25Z</time>
      </trkpt>
      <trkpt lat="42.89055" lon="-0.11226">
        <ele>943.67138671875</ele>
        <time>2015-12-29T14:29:36Z</time>
      </trkpt>
    </trkseg>
  </trk>
</gpx>